Littleton, CO (80128)

9:16 AM MDT on March 26, 2017 (GMT -0600)
Chatfield Heights | | Change Station

Elev 5551 ft 39.56 °N, 105.07 °W | Updated 30 seconds ago

Rain
Rain
44.4 °F
Feels Like 44 °F
N
0.0
Wind Variable Wind from WSW
Gusts 0.0 mph

Today
High -- | Low -- °F
--% Chance of Precip.
Yesterday
High -- | Low -- °F
Precip. -- in
Pressure 29.83 in
Visibility 10.0 miles
Clouds Few 4000 ft
Overcast 6000 ft
Windchill 44 °F
Dew Point 35 °F
Humidity 69%
Rainfall 0.00 in
Snow Depth Not available.
6:53 AM 7:18 PM
Waning Crescent, 3% visible
METAR KAPA 261453Z 35011KT 10SM -RA FEW040 OVC060 06/M01 A2987 RMK AO2 RAB35 SLP101 P0000 60000 T00561011 53019
Pressure 29.83 in
Visibility 10.0 miles
Clouds Few 4000 ft
Overcast 6000 ft
Windchill 44 °F
Dew Point 35 °F
Humidity 69%
Rainfall 0.00 in
Snow Depth Not available.
6:53 AM 7:18 PM
Waning Crescent, 3% visible
METAR KAPA 261453Z 35011KT 10SM -RA FEW040 OVC060 06/M01 A2987 RMK AO2 RAB35 SLP101 P0000 60000 T00561011 53019

Get Severe Weather Alerts

Thanks for signing up!

Be on the lookout for a verification email in your inbox.

You'll start receiving the daily forecast at 8 AM.

×

10-Day Weather Forecast

Almanac

Astronomy

Mar. 26, 2017 Rise Set
Actual Time
Civil Twilight
Nautical Twilight
Astronomical Twilight
Moon
Length of Visible Light
Length of Day
Tomorrow will be .
, % of the Moon is Illuminated

Today's Extremes

State Highs State Lows

Community

WunderPhotos

Upload Photos

1,962,540 photos uploaded!

WunderBlog® & News

Nearby

Air Quality

  Air Quality AQ Index Pollutant
Not available.

Snow Depth

Station Depth Elevation

Earthquake Activity

City Distance Mag. Time & Date
Minimum magnitude displayed is 2.5.

Earthquake Activity

City Distance Mag. Time & Date
Minimum magnitude displayed is 2.5.

Coastal Water Temperatures

Place Temperature

Stations

Nearby Weather Stations

Station Location Temp. Windchill Dew Point Humidity Wind Precip. Elev Updated Type
                   

Watches & Warnings

There are currently no watches in effect.